createdAt,value
2023-02-24T07:04:39.662Z,33.70
2023-02-24T07:05:39.255Z,57.32
2023-02-24T08:15:55.107Z,50.28
2023-02-24T08:15:55.605Z,49.98
2023-02-24T08:16:55.584Z,49.68
2023-02-24T14:04:23.278Z,0.00
2023-02-24T14:05:23.379Z,0.00
2023-02-24T14:06:23.675Z,0.00
2023-02-24T14:12:10.678Z,0.00
2023-02-24T14:13:09.509Z,0.00
2023-02-24T14:14:09.427Z,0.00
2023-02-24T14:15:09.414Z,0.00
2023-02-24T14:16:09.770Z,0.00
2023-02-24T14:17:09.578Z,0.00
2023-02-24T14:18:09.516Z,0.00
2023-02-24T14:19:09.497Z,0.00
2023-02-24T14:29:50.863Z,0.00
2023-02-24T14:30:50.951Z,0.00
2023-02-24T14:31:50.995Z,0.00
2023-02-24T14:32:50.870Z,0.00
2023-02-24T14:33:50.793Z,0.00
2023-02-24T14:34:50.783Z,0.00
2023-02-24T14:35:50.777Z,0.00
2023-02-24T14:36:50.873Z,0.00
2023-02-24T14:37:50.761Z,0.00
2023-02-24T14:39:29.197Z,0.00
2023-02-24T14:39:50.734Z,0.00
2023-02-24T14:40:50.743Z,0.00
2023-02-24T14:41:50.720Z,0.00
2023-02-24T14:42:50.708Z,0.00
2023-02-24T14:43:50.694Z,0.00
2023-02-24T14:44:50.689Z,0.00
2023-02-24T14:46:34.282Z,0.00
2023-02-24T14:46:50.812Z,0.00
2023-02-24T14:47:50.667Z,0.00
2023-02-24T14:48:50.647Z,0.00
2023-02-24T14:49:50.634Z,0.00
2023-02-24T14:50:50.654Z,0.00
2023-02-24T14:51:50.615Z,0.00
2023-02-24T14:53:14.204Z,0.00
2023-02-24T14:55:00.702Z,0.00
2023-02-24T14:55:01.158Z,0.00
2023-02-24T14:56:01.275Z,0.00
2023-02-24T14:57:01.141Z,0.00
2023-02-24T14:58:01.139Z,0.00
2023-02-24T14:59:01.125Z,0.00
2023-02-24T15:00:01.167Z,0.00
2023-02-24T15:01:01.102Z,0.00
2023-02-24T15:02:01.169Z,0.00
2023-02-24T15:03:01.124Z,0.00
2023-02-24T15:04:01.066Z,0.00
2023-02-24T15:05:01.111Z,0.00
2023-02-24T15:06:01.047Z,0.00
2023-02-24T15:07:01.037Z,0.00
2023-02-24T15:08:01.034Z,0.00
2023-02-24T15:09:01.028Z,0.00
2023-02-24T15:10:01.043Z,0.00
2023-02-24T15:11:00.998Z,0.00
2023-02-24T15:12:00.988Z,0.00
2023-02-24T15:13:01.232Z,0.00
2023-02-24T15:14:00.971Z,0.00
2023-02-24T15:15:01.010Z,0.00
2023-02-24T15:16:00.977Z,0.00
2023-02-24T15:17:00.944Z,0.00
2023-02-24T15:18:00.937Z,0.00
2023-02-24T15:19:01.625Z,0.00
2023-02-24T15:20:11.793Z,0.00
2023-02-24T15:21:00.910Z,0.00
2023-02-24T15:22:00.889Z,0.00
2023-02-24T15:23:00.883Z,0.00
2023-02-24T15:24:00.905Z,0.00
2023-02-24T15:25:00.864Z,0.00
2023-02-24T15:26:00.852Z,0.00
2023-02-24T15:27:00.845Z,0.00
2023-02-24T15:28:00.832Z,0.00
2023-02-24T15:29:00.856Z,0.00
2023-02-24T15:30:00.827Z,0.00
2023-02-24T15:31:00.955Z,0.00
2023-02-24T15:32:00.983Z,0.00
2023-02-24T15:33:00.826Z,0.00
2023-02-24T15:34:00.859Z,0.00
2023-02-24T15:35:00.783Z,0.00
2023-02-24T15:36:00.794Z,0.00
2023-02-24T15:37:00.747Z,0.00
2023-02-24T15:38:00.736Z,0.00
2023-02-24T15:39:00.727Z,0.00
2023-02-24T15:40:00.718Z,0.00
2023-02-24T15:41:00.757Z,0.00
2023-02-24T15:42:00.728Z,0.00
2023-02-24T15:43:00.691Z,0.00
2023-02-24T15:44:00.720Z,0.00
2023-02-24T15:45:00.692Z,0.00
2023-02-24T15:46:00.667Z,0.00
2023-02-24T15:47:00.724Z,0.00
2023-02-24T15:48:00.644Z,0.00
2023-02-24T15:49:00.680Z,0.00
2023-02-24T15:52:10.233Z,53.29
2023-02-24T15:53:10.210Z,54.82
2023-02-24T15:54:10.232Z,56.94
2023-02-24T15:55:10.192Z,54.54
2023-02-24T15:56:10.180Z,56.67
2023-02-24T15:57:10.170Z,56.70
2023-02-24T15:58:10.164Z,57.52
2023-02-24T15:59:10.145Z,56.62
2023-02-24T16:00:10.138Z,57.55
2023-02-24T16:01:10.278Z,56.57
2023-02-24T16:02:10.119Z,56.57
2023-02-24T16:03:10.133Z,57.40
2023-02-24T16:04:10.159Z,55.50
2023-02-24T16:05:10.087Z,55.02
2023-02-24T16:06:12.398Z,56.23
2023-02-24T16:07:10.095Z,55.13
2023-02-24T16:08:10.066Z,54.22
2023-02-24T16:09:10.059Z,55.25
2023-02-24T16:10:10.042Z,55.02
2023-02-24T16:11:10.056Z,55.73
2023-02-24T16:12:10.053Z,54.55
2023-02-24T16:13:10.031Z,54.05
2023-02-24T16:14:10.000Z,52.75
2023-02-24T16:15:09.993Z,53.45
2023-02-24T16:16:10.012Z,53.25
2023-02-24T16:17:10.014Z,52.84
2023-02-24T16:18:09.964Z,52.34
2023-02-24T16:19:09.980Z,52.47
2023-02-24T16:20:09.943Z,52.24
2023-02-24T16:21:09.976Z,52.07
2023-02-24T16:22:09.924Z,52.57
2023-02-24T16:23:09.921Z,52.87
2023-02-24T16:24:09.940Z,53.47
2023-02-24T16:25:09.897Z,53.47
2023-02-24T16:26:09.885Z,53.27
2023-02-24T16:27:09.875Z,52.37
2023-02-24T16:28:09.869Z,52.97
2023-02-24T16:29:09.911Z,52.87
2023-02-24T16:30:09.850Z,52.37
2023-02-24T16:31:09.887Z,52.67
2023-02-24T16:32:10.074Z,53.17
2023-02-24T16:33:09.953Z,52.67
2023-02-24T16:34:09.816Z,52.47
2023-02-24T16:35:09.830Z,52.57
2023-02-24T16:36:09.797Z,52.67
2023-02-24T16:37:09.788Z,53.07
2023-02-24T16:38:09.776Z,52.57
2023-02-24T16:39:09.770Z,52.67
2023-02-24T16:40:09.832Z,52.57
2023-02-24T16:41:09.759Z,52.67
2023-02-24T16:42:09.765Z,51.97
2023-02-24T16:43:09.735Z,52.67
2023-02-24T16:44:09.720Z,52.87
2023-02-24T16:45:09.739Z,52.07
2023-02-24T16:46:09.791Z,53.17
2023-02-24T16:47:09.694Z,52.67
2023-02-24T16:48:09.682Z,52.26
2023-02-24T16:49:09.697Z,52.07
2023-02-24T16:50:09.664Z,52.26
2023-02-24T16:51:09.658Z,52.87
2023-02-24T16:52:09.650Z,52.07
2023-02-24T16:53:09.636Z,51.89
2023-02-24T16:54:09.652Z,52.77
2023-02-24T16:55:09.618Z,52.49
2023-02-24T16:56:09.643Z,52.77
2023-02-24T16:57:09.627Z,52.77
2023-02-24T16:58:09.590Z,53.30
2023-02-24T16:59:09.610Z,52.17
2023-02-24T17:00:09.571Z,52.77
2023-02-24T17:01:09.649Z,53.27
2023-02-24T17:02:09.596Z,54.27
2023-02-24T17:03:09.542Z,53.77
2023-02-24T17:04:09.580Z,52.97
2023-02-24T17:05:09.526Z,54.38
2023-02-24T17:06:09.518Z,54.07
2023-02-24T17:07:09.509Z,53.80
2023-02-24T17:08:09.503Z,53.77
2023-02-24T17:09:09.493Z,53.97
2023-02-24T17:10:09.484Z,54.07
2023-02-24T17:11:09.471Z,54.00
2023-02-24T17:12:09.498Z,53.30
2023-02-24T17:13:09.453Z,52.97
2023-02-24T17:14:09.444Z,53.47
2023-02-24T17:15:09.436Z,53.27
2023-02-24T17:16:09.457Z,53.67
2023-02-24T17:17:09.534Z,53.67
2023-02-24T17:18:09.415Z,53.39
2023-02-24T17:19:09.398Z,53.59
2023-02-24T17:20:09.388Z,53.17
2023-02-24T17:21:09.379Z,54.30
2023-02-24T17:22:09.377Z,53.17
2023-02-24T17:23:09.361Z,53.09
2023-02-24T17:24:09.359Z,53.80
2023-02-24T17:25:09.345Z,53.97
2023-02-24T17:26:09.335Z,53.59
2023-02-24T17:27:09.324Z,53.20
2023-02-24T17:28:09.366Z,54.10
2023-02-24T17:29:09.343Z,53.20
2023-02-24T17:30:09.299Z,53.50
2023-02-24T17:31:09.355Z,54.20
2023-02-24T17:32:09.454Z,53.70
2023-02-24T17:33:09.269Z,53.59
2023-02-24T17:34:09.310Z,53.50
2023-02-24T17:35:09.252Z,53.50
2023-02-24T17:36:09.243Z,53.30
2023-02-24T17:37:09.234Z,53.50
2023-02-24T17:38:09.221Z,53.50
2023-02-24T17:39:09.213Z,53.39
2023-02-24T17:40:09.204Z,54.20
2023-02-24T17:41:09.196Z,53.30
2023-02-24T17:42:09.206Z,54.10
2023-02-24T17:43:09.175Z,53.90
2023-02-24T17:44:09.170Z,53.90
2023-02-24T17:45:09.152Z,53.70
2023-02-24T17:46:09.186Z,53.90
2023-02-24T17:47:09.131Z,53.00
2023-02-24T17:48:09.124Z,53.30
2023-02-24T17:49:09.119Z,53.50
2023-02-24T17:50:09.104Z,53.70
2023-02-24T17:51:09.128Z,53.39
2023-02-24T17:52:09.085Z,53.80
2023-02-24T17:53:09.076Z,53.50
2023-02-24T17:54:09.068Z,53.70
2023-02-24T17:55:09.058Z,53.39
2023-02-24T17:56:09.089Z,53.09
2023-02-24T17:57:09.051Z,53.80
2023-02-24T17:58:09.029Z,53.50
2023-02-24T17:59:09.017Z,52.89
2023-02-24T18:00:09.045Z,53.30
2023-02-24T18:01:09.030Z,53.20
2023-02-24T18:02:09.064Z,53.39
2023-02-24T18:03:09.140Z,53.20
2023-02-24T18:04:08.972Z,53.39
2023-02-24T18:05:08.964Z,53.30
2023-02-24T18:06:08.954Z,53.50
2023-02-24T18:07:08.971Z,53.30
2023-02-24T18:08:08.932Z,54.10
2023-02-24T18:09:08.923Z,53.59
2023-02-24T18:10:08.918Z,53.59
2023-02-24T18:11:08.930Z,53.20
2023-02-24T18:12:08.896Z,54.30
2023-02-24T18:13:08.896Z,53.80
2023-02-24T18:14:08.879Z,53.09
2023-02-24T18:15:09.573Z,53.80
2023-02-24T18:16:08.959Z,54.40
2023-02-24T18:17:08.848Z,54.13
2023-02-24T18:18:08.844Z,54.33
2023-02-24T18:19:08.838Z,54.70
2023-02-24T18:20:08.848Z,53.50
2023-02-24T18:21:08.872Z,53.00
2023-02-24T18:22:08.800Z,54.30
2023-02-24T18:23:08.791Z,53.00
2023-02-24T18:24:08.784Z,53.20
2023-02-24T18:25:08.801Z,53.30
2023-02-24T18:26:08.778Z,53.50
2023-02-24T18:27:08.755Z,53.59
2023-02-24T18:28:08.759Z,53.90
2023-02-24T18:29:08.737Z,53.20
2023-02-24T18:30:08.726Z,54.10
2023-02-24T18:31:08.808Z,54.00
2023-02-24T18:32:08.956Z,53.59
2023-02-24T18:33:08.930Z,54.00
2023-02-24T18:34:08.690Z,54.40
2023-02-24T18:35:08.680Z,53.90
2023-02-24T18:36:08.676Z,53.70
2023-02-24T18:37:08.663Z,54.10
2023-02-24T18:38:08.655Z,54.50
2023-02-24T18:39:08.641Z,54.30
2023-02-24T18:40:08.646Z,53.59
2023-02-24T18:41:08.636Z,54.00
2023-02-24T18:42:08.615Z,54.20
2023-02-24T18:43:08.611Z,54.10
2023-02-24T18:44:08.602Z,54.30
2023-02-24T18:45:08.589Z,54.50
2023-02-24T18:46:08.633Z,53.90
2023-02-24T18:47:08.571Z,54.02
2023-02-24T18:48:08.596Z,53.92
2023-02-24T18:49:08.553Z,54.63
2023-02-24T18:50:08.547Z,54.20
2023-02-24T18:51:08.536Z,54.53
2023-02-24T18:52:08.550Z,54.13
2023-02-24T18:53:08.512Z,53.82
2023-02-24T18:54:08.529Z,53.72
2023-02-24T18:55:08.546Z,54.13
2023-02-24T18:56:08.576Z,54.53
2023-02-24T18:57:08.481Z,54.83
2023-02-24T18:58:08.467Z,53.72
2023-02-24T18:59:08.455Z,54.72
2023-02-24T19:00:08.446Z,54.63
2023-02-24T19:01:08.443Z,54.75
2023-02-24T19:02:08.528Z,54.63
2023-02-24T19:03:08.535Z,54.43
2023-02-24T19:04:08.440Z,54.22
2023-02-24T19:05:08.403Z,54.43
2023-02-24T19:06:08.415Z,54.53
2023-02-24T19:07:08.378Z,54.13
2023-02-24T19:08:08.369Z,54.13
2023-02-24T19:09:08.359Z,54.33
2023-02-24T19:10:08.383Z,54.15
2023-02-24T19:11:08.344Z,54.63
2023-02-24T19:12:08.364Z,54.53
2023-02-24T19:13:08.321Z,54.75
2023-02-24T19:14:09.434Z,53.95
2023-02-24T19:15:08.301Z,54.53
2023-02-24T19:16:08.379Z,54.25
2023-02-24T19:17:08.308Z,54.65
2023-02-24T19:18:08.286Z,54.33
2023-02-24T19:19:08.269Z,54.55
2023-02-24T19:20:08.291Z,54.05
2023-02-24T19:21:08.299Z,54.55
2023-02-24T19:22:08.232Z,53.95
2023-02-24T19:23:08.228Z,54.75
2023-02-24T19:24:08.527Z,54.25
2023-02-24T19:25:08.207Z,54.15
2023-02-24T19:26:08.194Z,54.35
2023-02-24T19:27:08.212Z,54.35
2023-02-24T19:28:08.173Z,54.96
2023-02-24T19:29:08.167Z,54.45
2023-02-24T19:30:08.154Z,54.45
2023-02-24T19:31:08.299Z,54.05
2023-02-24T19:32:08.310Z,54.75
2023-02-24T19:33:08.214Z,54.25
2023-02-24T19:34:08.132Z,54.75
2023-02-24T19:35:08.108Z,54.35
2023-02-24T19:36:08.104Z,54.45
2023-02-24T19:37:08.095Z,54.28
2023-02-24T19:38:08.081Z,55.48
2023-02-24T19:39:08.110Z,55.18
2023-02-24T19:40:08.071Z,54.15
2023-02-24T19:41:08.068Z,53.05
2023-02-24T19:42:08.041Z,54.28
2023-02-24T19:43:08.033Z,55.35
2023-02-24T19:44:08.023Z,54.88
2023-02-24T19:45:08.011Z,54.55
2023-02-24T19:46:08.058Z,54.65
2023-02-24T19:47:07.992Z,54.25
2023-02-24T19:48:07.984Z,54.78
2023-02-24T19:49:07.972Z,53.88
2023-02-24T19:50:08.000Z,54.17
2023-02-24T19:51:07.980Z,54.08
2023-02-24T19:52:07.945Z,53.88
2023-02-24T19:53:07.945Z,53.67
2023-02-24T19:54:07.985Z,53.88
2023-02-24T19:55:07.911Z,54.08
2023-02-24T19:56:07.932Z,53.97
2023-02-24T19:57:10.188Z,53.67
2023-02-24T19:58:07.884Z,54.08
2023-02-24T19:59:07.883Z,54.08
2023-02-24T20:00:07.862Z,53.67
2023-02-24T20:01:08.027Z,53.97
2023-02-24T20:02:07.845Z,54.17
2023-02-24T20:03:07.832Z,53.77
2023-02-24T20:04:07.828Z,54.17
2023-02-24T20:05:07.900Z,53.88
2023-02-24T20:06:07.800Z,54.17
2023-02-24T20:07:07.794Z,53.88
2023-02-24T20:08:07.802Z,53.88
2023-02-24T20:09:07.773Z,54.38
2023-02-24T20:10:07.770Z,53.67
2023-02-24T20:11:07.754Z,53.77
2023-02-24T20:12:07.769Z,53.97
2023-02-24T20:13:07.747Z,54.28
2023-02-24T20:14:07.762Z,54.48
2023-02-24T20:15:07.714Z,53.47
2023-02-24T20:16:07.775Z,53.88
2023-02-24T20:17:07.762Z,55.48
2023-02-24T20:18:07.718Z,53.47
2023-02-24T20:19:07.671Z,54.28
2023-02-24T20:20:07.664Z,53.37
2023-02-24T20:21:07.654Z,54.17
2023-02-24T20:22:07.645Z,54.08
2023-02-24T20:23:07.632Z,54.17
2023-02-24T20:24:07.670Z,54.48
2023-02-24T20:25:07.614Z,53.67
2023-02-24T20:26:07.600Z,53.67
2023-02-24T20:27:07.595Z,54.17
2023-02-24T20:28:07.585Z,54.08
2023-02-24T20:29:07.573Z,54.48
2023-02-24T20:30:07.561Z,54.78
2023-02-24T20:31:07.608Z,54.68
2023-02-24T20:32:07.660Z,54.58
2023-02-24T20:33:07.559Z,54.48
2023-02-24T20:34:07.522Z,54.78
2023-02-24T20:35:07.554Z,54.58
2023-02-24T20:36:07.511Z,54.68
2023-02-24T20:37:07.493Z,54.78
2023-02-24T20:38:07.518Z,54.68
2023-02-24T20:39:07.484Z,54.38
2023-02-24T20:40:07.473Z,54.40
2023-02-24T20:41:07.454Z,54.40
2023-02-24T20:42:07.445Z,54.20
2023-02-24T20:43:07.434Z,54.30
2023-02-24T20:44:07.426Z,54.40
2023-02-24T20:45:07.442Z,54.50
2023-02-24T20:46:07.436Z,54.00
2023-02-24T20:47:07.395Z,54.00
2023-02-24T20:48:07.410Z,54.40
2023-02-24T20:49:07.404Z,52.19
2023-02-24T20:50:07.398Z,51.99
2023-02-24T20:51:07.354Z,51.61
2023-02-24T20:52:07.349Z,51.71
2023-02-24T20:53:07.338Z,51.73
2023-02-24T20:54:07.322Z,51.64
2023-02-24T20:55:07.343Z,52.14
2023-02-24T20:56:07.356Z,52.84
2023-02-24T20:57:07.301Z,52.14
2023-02-24T20:58:07.281Z,52.87
2023-02-24T20:59:07.274Z,52.17
2023-02-24T21:00:07.277Z,52.06
2023-02-24T21:01:07.381Z,52.26
2023-02-24T21:02:07.244Z,52.67
2023-02-24T21:03:07.230Z,53.67
2023-02-24T21:04:07.226Z,53.70
2023-02-24T21:05:07.295Z,53.07
2023-02-24T21:06:10.222Z,53.47
2023-02-24T21:07:07.221Z,54.00
2023-02-24T21:08:07.197Z,54.00
2023-02-24T21:09:07.176Z,54.18
2023-02-24T21:10:07.247Z,54.71
2023-02-24T21:11:09.360Z,54.99
2023-02-24T21:12:07.147Z,53.98
2023-02-24T21:13:07.130Z,54.68
2023-02-24T21:14:07.151Z,54.38
2023-02-24T21:15:07.131Z,54.58
2023-02-24T21:16:07.177Z,55.69
2023-02-24T21:17:07.088Z,54.18
2023-02-24T21:18:07.096Z,55.19
2023-02-24T21:19:07.076Z,55.39
2023-02-24T21:20:07.056Z,54.88
2023-02-24T21:21:07.088Z,54.88
2023-02-24T21:22:07.032Z,55.39
2023-02-24T21:23:07.044Z,55.39
2023-02-24T21:24:07.012Z,54.68
2023-02-24T21:25:07.003Z,54.99
2023-02-24T21:26:06.996Z,54.28
2023-02-24T21:27:07.012Z,54.68
2023-02-24T21:28:06.978Z,53.98
2023-02-24T21:29:06.959Z,54.08
2023-02-24T21:30:07.011Z,54.99
2023-02-24T21:31:07.163Z,54.46
2023-02-24T21:32:07.074Z,54.48
2023-02-24T21:33:06.917Z,54.88
2023-02-24T21:34:06.953Z,54.48
2023-02-24T21:35:06.899Z,55.08
2023-02-24T21:36:06.890Z,55.29
2023-02-24T21:37:06.880Z,55.59
2023-02-24T21:38:06.866Z,55.59
2023-02-24T21:39:06.858Z,55.79
2023-02-24T21:40:06.870Z,55.99
2023-02-24T21:41:06.840Z,55.89
2023-02-24T21:42:06.851Z,56.40
2023-02-24T21:43:06.842Z,56.09
2023-02-24T21:44:06.811Z,55.08
2023-02-24T21:45:06.821Z,55.19
2023-02-24T21:46:06.825Z,56.20
2023-02-24T21:47:06.771Z,56.20
2023-02-24T21:48:06.758Z,54.88
2023-02-24T21:49:06.750Z,55.89
2023-02-24T21:50:06.763Z,55.59
2023-02-24T21:51:06.753Z,55.29
2023-02-24T21:52:06.744Z,55.59
2023-02-24T21:53:06.722Z,54.79
2023-02-24T21:54:06.697Z,55.99
2023-02-24T21:55:06.691Z,55.79
2023-02-24T21:56:06.732Z,55.79
2023-02-24T21:57:06.667Z,56.20
2023-02-24T21:58:06.659Z,55.79
2023-02-24T21:59:06.647Z,55.39
2023-02-24T22:00:06.643Z,55.49
2023-02-24T22:01:06.638Z,55.89
2023-02-24T22:02:06.615Z,55.29
2023-02-24T22:03:06.651Z,54.58
2023-02-24T22:04:06.590Z,55.49
2023-02-24T22:05:06.582Z,54.99
2023-02-24T22:06:06.578Z,55.49
2023-02-24T22:07:06.561Z,54.99
2023-02-24T22:08:06.578Z,54.71
2023-02-24T22:09:06.539Z,54.68
2023-02-24T22:10:06.525Z,54.38
2023-02-24T22:11:06.544Z,54.30
2023-02-24T22:12:06.533Z,53.78
2023-02-24T22:13:06.498Z,54.50
2023-02-24T22:14:06.484Z,54.41
2023-02-24T22:15:06.475Z,53.80
2023-02-24T22:16:06.553Z,54.30
2023-02-24T22:17:06.484Z,54.21
2023-02-24T22:18:06.482Z,54.30
2023-02-24T22:19:06.452Z,54.30
2023-02-24T22:20:06.426Z,54.10
2023-02-24T22:21:06.410Z,54.30
2023-02-24T22:22:06.409Z,54.10
2023-02-24T22:23:06.392Z,54.63
2023-02-24T22:24:06.385Z,54.21
2023-02-24T22:25:06.369Z,53.30
2023-02-24T22:26:06.385Z,53.22
2023-02-24T22:27:06.347Z,53.63
2023-02-24T22:28:06.337Z,53.72
2023-02-24T22:29:06.327Z,54.53
2023-02-24T22:30:06.314Z,53.52
2023-02-24T22:31:06.412Z,54.03
2023-02-24T22:32:06.457Z,54.53
2023-02-24T22:33:06.301Z,54.13
2023-02-24T22:34:06.337Z,54.23
2023-02-24T22:35:06.266Z,54.33
2023-02-24T22:36:06.267Z,54.23
2023-02-24T22:37:06.273Z,54.03
2023-02-24T22:38:06.230Z,54.23
2023-02-24T22:39:06.223Z,54.33
2023-02-24T22:40:06.258Z,54.03
2023-02-24T22:41:06.199Z,54.23
2023-02-24T22:42:06.188Z,54.76
2023-02-24T22:43:06.184Z,54.56
2023-02-24T22:44:06.175Z,54.76
2023-02-24T22:45:06.165Z,54.25
2023-02-24T22:46:06.173Z,53.85
2023-02-24T22:47:06.188Z,53.85
2023-02-24T22:48:06.214Z,54.36
2023-02-24T22:49:06.114Z,54.76
2023-02-24T22:50:06.130Z,55.06
2023-02-24T22:51:06.093Z,56.57
2023-02-24T22:52:06.092Z,56.27
2023-02-24T22:53:06.070Z,55.57
2023-02-24T22:54:06.057Z,55.66
2023-02-24T22:55:06.074Z,55.06
2023-02-24T22:56:06.037Z,54.66
2023-02-24T22:57:06.024Z,54.96
2023-02-24T22:58:06.021Z,54.96
2023-02-24T22:59:06.013Z,54.46
2023-02-24T23:00:06.020Z,55.06
2023-02-24T23:01:06.041Z,55.66
2023-02-24T23:02:05.969Z,56.68
2023-02-24T23:03:05.966Z,56.57
2023-02-24T23:04:06.026Z,58.09
2023-02-24T23:05:05.985Z,57.48
2023-02-24T23:06:05.954Z,57.48
2023-02-24T23:07:05.919Z,58.09
2023-02-24T23:08:05.914Z,57.68
2023-02-24T23:09:05.893Z,57.89
2023-02-24T23:10:05.884Z,58.09
2023-02-24T23:11:05.870Z,57.58
2023-02-24T23:12:05.861Z,57.98
2023-02-24T23:13:05.852Z,58.09
2023-02-24T23:14:05.847Z,57.58
2023-02-24T23:15:05.824Z,58.01
2023-02-24T23:16:05.864Z,58.01
2023-02-24T23:17:05.803Z,57.21
2023-02-24T23:18:05.789Z,57.51
2023-02-24T23:19:05.804Z,58.01
2023-02-24T23:20:05.781Z,57.51
2023-02-24T23:21:05.801Z,57.81
2023-02-24T23:22:05.780Z,57.91
2023-02-24T23:23:05.760Z,58.32
2023-02-24T23:24:05.723Z,58.01
2023-02-24T23:25:05.712Z,59.02
2023-02-24T23:26:05.700Z,58.72
2023-02-24T23:27:05.694Z,58.62
2023-02-24T23:28:05.710Z,59.02
2023-02-24T23:29:05.671Z,59.22
2023-02-24T23:30:05.655Z,59.73
2023-02-24T23:31:05.710Z,59.02
2023-02-24T23:32:05.800Z,59.12
2023-02-24T23:33:05.623Z,59.63
2023-02-24T23:34:05.616Z,59.56
2023-02-24T23:35:05.598Z,59.02
2023-02-24T23:36:05.598Z,59.33
2023-02-24T23:37:05.702Z,60.44
2023-02-24T23:38:05.569Z,60.24
2023-02-24T23:39:05.593Z,59.35
2023-02-24T23:40:05.555Z,60.46
2023-02-24T23:41:05.536Z,59.86
2023-02-24T23:42:05.557Z,59.53
2023-02-24T23:43:05.511Z,59.45
2023-02-24T23:44:05.502Z,58.85
2023-02-24T23:45:05.556Z,59.05
2023-02-24T23:46:05.572Z,58.75
2023-02-24T23:47:05.505Z,58.95
2023-02-24T23:48:05.457Z,59.15
2023-02-24T23:49:05.447Z,58.95
2023-02-24T23:50:05.438Z,58.75
2023-02-24T23:51:05.426Z,58.65
2023-02-24T23:52:05.447Z,58.95
2023-02-24T23:53:05.435Z,59.66
2023-02-24T23:54:05.391Z,59.45
2023-02-24T23:55:05.412Z,59.66
2023-02-24T23:56:05.367Z,59.56
2023-02-24T23:57:05.352Z,58.75
2023-02-24T23:58:05.360Z,58.78
2023-02-24T23:59:05.329Z,58.87
